Terminal Aerodrome Forecast
Issued by NWS

Home | Current Version | Previous Version | Text Only | Print | Product List | Glossary On
Versions: 1 2 3 4 5 6 7 8 9 10 11 12 13 14
358
FTUS44 KLZK 232127 AAA
TAFHOT
TAF AMD
KHOT 232127Z 2321/2418 22005KT P6SM VCTS SCT050CB BKN250
      TEMPO 2321/2323 VRB15G30KT 3SM TSRA BR BKN030CB
     FM240400 VRB03KT P6SM SCT250
     FM241500 17006KT P6SM SCT050 SCT250=

USA.gov is the U.S. government's official web portal to all federal, state and local government web resources and services.